createdAt,value
2022-08-25T00:00:21.986Z,91.00
2022-08-25T00:02:56.226Z,91.50
2022-08-25T00:05:39.330Z,92.51
2022-08-25T00:08:09.851Z,92.22
2022-08-25T00:10:40.020Z,92.87
2022-08-25T00:13:09.380Z,92.73
2022-08-25T00:15:38.721Z,92.73
2022-08-25T00:18:16.961Z,92.24
2022-08-25T00:20:50.348Z,93.25
2022-08-25T00:23:21.519Z,93.12
2022-08-25T00:25:51.304Z,92.15
2022-08-25T00:28:19.477Z,92.25
2022-08-25T00:30:49.876Z,92.68
2022-08-25T00:33:19.532Z,92.90
2022-08-25T00:35:50.503Z,94.32
2022-08-25T00:38:20.817Z,93.49
2022-08-25T00:41:06.116Z,94.40
2022-08-25T00:43:38.273Z,95.51
2022-08-25T00:46:06.941Z,95.98
2022-08-25T00:48:35.529Z,96.73
2022-08-25T00:51:04.811Z,97.67
2022-08-25T00:53:35.167Z,99.41
2022-08-25T00:56:03.772Z,99.94
2022-08-25T00:58:33.968Z,99.72
2022-08-25T01:01:02.906Z,99.79
2022-08-25T01:03:35.928Z,99.61
2022-08-25T01:06:06.566Z,99.25
2022-08-25T01:08:36.621Z,99.36
2022-08-25T01:11:08.239Z,100.00
2022-08-25T01:13:40.901Z,100.00
2022-08-25T01:16:09.463Z,100.00
2022-08-25T01:18:49.266Z,100.00
2022-08-25T01:21:21.519Z,100.00
2022-08-25T01:23:50.638Z,100.00
2022-08-25T01:26:25.138Z,100.00
2022-08-25T01:29:19.688Z,100.00
2022-08-25T01:31:49.173Z,100.00
2022-08-25T01:34:19.367Z,100.00
2022-08-25T01:36:49.163Z,100.00
2022-08-25T01:39:18.164Z,100.00
2022-08-25T01:42:05.910Z,100.00
2022-08-25T01:44:37.081Z,100.00
2022-08-25T01:47:07.410Z,100.00
2022-08-25T01:49:35.789Z,100.00
2022-08-25T01:52:09.327Z,100.00
2022-08-25T01:54:37.727Z,100.00
2022-08-25T01:57:06.481Z,100.00
2022-08-25T01:59:34.937Z,100.00
2022-08-25T02:02:04.939Z,100.00
2022-08-25T02:07:06.320Z,100.00
2022-08-25T02:09:35.278Z,100.00
2022-08-25T02:12:04.253Z,100.00
2022-08-25T02:14:32.670Z,100.00
2022-08-25T02:17:00.875Z,100.00
2022-08-25T02:19:31.185Z,100.00
2022-08-25T02:21:59.668Z,100.00
2022-08-25T02:24:30.184Z,100.00
2022-08-25T02:27:00.106Z,100.00
2022-08-25T02:29:28.552Z,100.00
2022-08-25T02:31:57.162Z,100.00
2022-08-25T02:34:25.510Z,100.00
2022-08-25T02:36:54.020Z,100.00
2022-08-25T02:39:24.034Z,100.00
2022-08-25T02:41:53.836Z,100.00
2022-08-25T02:44:22.381Z,100.00
2022-08-25T02:46:51.039Z,100.00
2022-08-25T02:49:19.555Z,100.00
2022-08-25T02:51:48.320Z,100.00
2022-08-25T02:54:17.891Z,100.00
2022-08-25T02:56:46.270Z,100.00
2022-08-25T02:59:18.120Z,100.00
2022-08-25T03:01:47.562Z,100.00
2022-08-25T03:04:15.962Z,100.00
2022-08-25T03:06:44.401Z,100.00
2022-08-25T03:09:13.199Z,100.00
2022-08-25T03:11:42.432Z,100.00
2022-08-25T03:14:12.005Z,100.00
2022-08-25T03:16:42.893Z,100.00
2022-08-25T03:19:15.836Z,100.00
2022-08-25T03:21:45.519Z,100.00
2022-08-25T03:24:14.183Z,100.00
2022-08-25T03:26:56.527Z,100.00
2022-08-25T03:29:27.079Z,100.00
2022-08-25T03:31:58.390Z,100.00
2022-08-25T03:34:29.027Z,100.00
2022-08-25T03:36:59.432Z,100.00
2022-08-25T03:39:29.248Z,100.00
2022-08-25T03:41:57.569Z,100.00
2022-08-25T03:44:25.752Z,100.00
2022-08-25T03:46:54.180Z,100.00
2022-08-25T03:49:25.223Z,100.00
2022-08-25T03:51:55.400Z,100.00
2022-08-25T03:54:26.367Z,100.00
2022-08-25T03:56:55.362Z,100.00
2022-08-25T03:59:23.567Z,100.00
2022-08-25T04:01:55.387Z,100.00
2022-08-25T04:04:26.812Z,100.00
2022-08-25T04:06:55.579Z,100.00
2022-08-25T04:09:24.339Z,100.00
2022-08-25T04:11:54.143Z,100.00
2022-08-25T04:14:23.896Z,100.00
2022-08-25T04:16:53.250Z,100.00
2022-08-25T04:19:22.270Z,100.00
2022-08-25T04:21:56.831Z,100.00
2022-08-25T04:24:25.779Z,100.00
2022-08-25T04:26:53.933Z,100.00
2022-08-25T04:29:24.385Z,100.00
2022-08-25T04:31:53.571Z,100.00
2022-08-25T04:34:29.582Z,100.00
2022-08-25T04:37:03.156Z,100.00
2022-08-25T04:39:32.075Z,100.00
2022-08-25T04:42:01.337Z,100.00
2022-08-25T04:44:30.812Z,100.00
2022-08-25T04:46:59.783Z,100.00
2022-08-25T04:49:28.495Z,100.00
2022-08-25T04:51:57.763Z,100.00
2022-08-25T04:54:28.482Z,100.00
2022-08-25T04:56:58.457Z,100.00
2022-08-25T04:59:30.337Z,100.00
2022-08-25T05:02:02.785Z,100.00
2022-08-25T05:04:31.861Z,100.00
2022-08-25T05:07:00.795Z,100.00
2022-08-25T05:09:32.026Z,100.00
2022-08-25T05:12:02.235Z,100.00
2022-08-25T05:14:31.623Z,100.00
2022-08-25T05:17:02.216Z,100.00
2022-08-25T05:19:30.648Z,100.00
2022-08-25T05:21:59.144Z,100.00
2022-08-25T05:24:28.211Z,100.00
2022-08-25T05:26:58.376Z,100.00
2022-08-25T05:29:27.374Z,100.00
2022-08-25T05:31:56.069Z,100.00
2022-08-25T05:34:25.256Z,100.00
2022-08-25T05:36:57.636Z,100.00
2022-08-25T05:39:26.995Z,100.00
2022-08-25T05:41:55.578Z,100.00
2022-08-25T05:44:25.746Z,100.00
2022-08-25T05:46:53.943Z,100.00
2022-08-25T05:49:22.447Z,100.00
2022-08-25T05:51:50.769Z,100.00
2022-08-25T05:54:19.150Z,100.00
2022-08-25T05:56:47.406Z,100.00
2022-08-25T05:59:16.976Z,100.00
2022-08-25T06:02:04.199Z,100.00
2022-08-25T06:04:32.797Z,100.00
2022-08-25T06:07:01.077Z,100.00
2022-08-25T06:09:29.726Z,100.00
2022-08-25T06:11:58.227Z,100.00
2022-08-25T06:14:27.625Z,100.00
2022-08-25T06:16:57.631Z,100.00
2022-08-25T06:19:26.459Z,100.00
2022-08-25T06:21:56.670Z,100.00
2022-08-25T06:24:25.773Z,100.00
2022-08-25T06:26:54.277Z,100.00
2022-08-25T06:29:22.763Z,100.00
2022-08-25T06:31:51.350Z,100.00
2022-08-25T06:34:23.752Z,100.00
2022-08-25T06:36:52.707Z,100.00
2022-08-25T06:39:21.302Z,100.00
2022-08-25T06:41:53.440Z,100.00
2022-08-25T06:44:22.116Z,100.00
2022-08-25T06:46:51.148Z,100.00
2022-08-25T06:49:21.559Z,100.00
2022-08-25T06:51:50.778Z,100.00
2022-08-25T06:54:19.184Z,100.00
2022-08-25T06:56:49.609Z,100.00
2022-08-25T06:59:19.876Z,100.00
2022-08-25T07:01:50.295Z,100.00
2022-08-25T07:04:23.115Z,100.00
2022-08-25T07:06:55.179Z,100.00
2022-08-25T07:09:23.565Z,100.00
2022-08-25T07:11:52.939Z,100.00
2022-08-25T07:14:23.411Z,100.00
2022-08-25T07:16:51.873Z,100.00
2022-08-25T07:19:21.697Z,100.00
2022-08-25T07:21:54.345Z,100.00
2022-08-25T07:24:23.989Z,100.00
2022-08-25T07:26:52.924Z,100.00
2022-08-25T07:29:31.674Z,100.00
2022-08-25T07:32:01.904Z,100.00
2022-08-25T07:34:52.361Z,100.00
2022-08-25T07:37:47.594Z,100.00
2022-08-25T07:40:18.075Z,100.00
2022-08-25T07:42:47.200Z,100.00
2022-08-25T07:45:20.429Z,100.00
2022-08-25T07:47:51.731Z,100.00
2022-08-25T07:50:23.278Z,100.00
2022-08-25T07:52:55.399Z,100.00
2022-08-25T07:55:28.083Z,100.00
2022-08-25T07:57:59.929Z,100.00
2022-08-25T08:00:30.385Z,100.00
2022-08-25T08:02:59.103Z,100.00
2022-08-25T08:05:28.659Z,100.00
2022-08-25T08:07:58.512Z,100.00
2022-08-25T08:11:04.895Z,100.00
2022-08-25T08:13:18.790Z,100.00
2022-08-25T08:15:48.370Z,100.00
2022-08-25T08:18:17.464Z,100.00
2022-08-25T08:20:50.132Z,100.00
2022-08-25T08:23:19.951Z,100.00
2022-08-25T08:25:48.731Z,100.00
2022-08-25T08:28:19.297Z,100.00
2022-08-25T08:30:52.877Z,100.00
2022-08-25T08:33:23.739Z,100.00
2022-08-25T08:35:59.399Z,100.00
2022-08-25T08:38:29.424Z,100.00
2022-08-25T08:41:25.180Z,100.00
2022-08-25T08:44:02.648Z,100.00
2022-08-25T08:46:42.490Z,100.00
2022-08-25T08:49:26.773Z,100.00
2022-08-25T08:52:01.126Z,100.00
2022-08-25T08:54:36.172Z,97.24
2022-08-25T08:57:11.852Z,97.18
2022-08-25T08:59:49.181Z,97.94
2022-08-25T09:02:39.377Z,100.00
2022-08-25T09:05:19.589Z,100.00
2022-08-25T09:07:55.092Z,97.99
2022-08-25T09:10:31.712Z,96.20
2022-08-25T09:13:12.117Z,93.97
2022-08-25T09:16:08.373Z,94.63
2022-08-25T09:18:52.667Z,94.11
2022-08-25T09:21:29.322Z,93.98
2022-08-25T09:24:15.783Z,89.53
2022-08-25T09:26:54.158Z,88.54
2022-08-25T09:29:26.489Z,87.74
2022-08-25T09:32:01.851Z,89.14
2022-08-25T09:34:34.593Z,90.42
2022-08-25T09:37:03.211Z,88.78
2022-08-25T09:39:33.184Z,87.10
2022-08-25T09:42:03.580Z,85.39
2022-08-25T09:44:36.389Z,82.82
2022-08-25T09:47:08.459Z,81.04
2022-08-25T09:49:44.241Z,81.51
2022-08-25T09:52:33.478Z,81.24
2022-08-25T09:55:21.778Z,83.67
2022-08-25T09:57:57.511Z,85.29
2022-08-25T10:00:29.142Z,81.80
2022-08-25T10:03:13.241Z,80.06
2022-08-25T10:06:00.655Z,76.99
2022-08-25T10:08:35.233Z,73.26
2022-08-25T10:11:09.048Z,73.64
2022-08-25T10:14:02.502Z,70.40
2022-08-25T10:16:36.141Z,71.59
2022-08-25T10:19:09.609Z,68.48
2022-08-25T10:21:39.679Z,68.16
2022-08-25T10:24:11.339Z,66.89
2022-08-25T10:26:55.599Z,65.60
2022-08-25T10:29:38.742Z,65.60
2022-08-25T10:32:17.298Z,67.62
2022-08-25T10:34:51.910Z,68.95
2022-08-25T10:37:33.245Z,69.70
2022-08-25T10:40:16.640Z,67.35
2022-08-25T10:43:07.710Z,67.77
2022-08-25T10:45:44.799Z,66.77
2022-08-25T10:48:41.826Z,69.98
2022-08-25T10:51:27.416Z,69.19
2022-08-25T10:54:08.195Z,67.67
2022-08-25T10:56:41.645Z,64.23
2022-08-25T10:59:23.772Z,62.61
2022-08-25T11:02:14.272Z,62.66
2022-08-25T11:04:51.602Z,60.02
2022-08-25T11:07:26.465Z,59.66
2022-08-25T11:09:59.329Z,57.89
2022-08-25T11:12:33.074Z,57.24
2022-08-25T11:15:10.934Z,55.66
2022-08-25T11:17:50.384Z,55.96
2022-08-25T11:20:26.845Z,58.19
2022-08-25T11:23:04.488Z,60.35
2022-08-25T11:25:38.986Z,63.57
2022-08-25T11:28:13.037Z,63.21
2022-08-25T11:30:42.492Z,62.33
2022-08-25T11:33:14.402Z,62.01
2022-08-25T11:35:51.286Z,61.40
2022-08-25T11:38:47.992Z,60.38
2022-08-25T11:41:28.838Z,61.60
2022-08-25T11:44:13.184Z,61.29
2022-08-25T11:46:53.959Z,61.78
2022-08-25T11:49:41.940Z,62.88
2022-08-25T11:52:43.317Z,60.87
2022-08-25T11:55:15.145Z,61.39
2022-08-25T11:57:44.733Z,61.20
2022-08-25T12:00:17.774Z,59.47
2022-08-25T12:02:48.950Z,58.25
2022-08-25T12:06:01.871Z,63.60
2022-08-25T12:09:08.181Z,65.68
2022-08-25T12:12:01.016Z,62.24
2022-08-25T12:14:45.482Z,61.72
2022-08-25T12:17:40.305Z,60.14
2022-08-25T12:20:09.533Z,59.46
2022-08-25T12:22:55.625Z,60.18
2022-08-25T12:25:49.432Z,60.37
2022-08-25T12:28:57.767Z,59.73
2022-08-25T12:31:48.729Z,57.71
2022-08-25T12:34:38.736Z,55.88
2022-08-25T12:37:15.316Z,55.73
2022-08-25T12:39:58.637Z,56.81
2022-08-25T12:42:33.435Z,56.08
2022-08-25T12:45:36.445Z,56.37
2022-08-25T12:48:44.211Z,56.78
2022-08-25T12:51:19.753Z,58.34
2022-08-25T12:53:55.108Z,56.08
2022-08-25T12:56:35.137Z,56.37
2022-08-25T12:59:18.244Z,55.74
2022-08-25T13:02:20.179Z,55.39
2022-08-25T13:05:49.984Z,56.34
2022-08-25T13:08:48.190Z,55.28
2022-08-25T13:11:23.021Z,56.14
2022-08-25T13:13:58.960Z,55.72
2022-08-25T13:16:31.451Z,55.94
2022-08-25T13:19:01.790Z,55.34
2022-08-25T13:21:32.941Z,55.27
2022-08-25T13:24:07.504Z,54.36
2022-08-25T13:26:47.164Z,53.51
2022-08-25T13:29:21.714Z,51.91
2022-08-25T13:31:57.480Z,50.77
2022-08-25T13:34:34.402Z,52.52
2022-08-25T13:37:25.848Z,51.64
2022-08-25T13:40:10.956Z,48.74
2022-08-25T13:42:44.477Z,47.29
2022-08-25T13:45:22.005Z,46.66
2022-08-25T13:48:07.597Z,45.41
2022-08-25T13:50:43.758Z,46.16
2022-08-25T13:53:25.694Z,45.50
2022-08-25T13:55:57.317Z,45.22
2022-08-25T13:58:39.113Z,44.23
2022-08-25T14:01:22.707Z,43.73
2022-08-25T14:04:32.176Z,43.87
2022-08-25T14:07:11.026Z,44.64
2022-08-25T14:09:43.005Z,44.99
2022-08-25T14:12:29.356Z,44.68
2022-08-25T14:15:05.988Z,44.70
2022-08-25T14:17:39.517Z,44.16
2022-08-25T14:20:20.571Z,44.92
2022-08-25T14:22:50.124Z,44.01
2022-08-25T14:25:18.751Z,44.92
2022-08-25T14:28:07.394Z,45.21
2022-08-25T14:30:43.364Z,45.00
2022-08-25T14:33:15.633Z,45.36
2022-08-25T14:35:47.475Z,45.47
2022-08-25T14:38:17.696Z,46.02
2022-08-25T14:40:46.366Z,46.89
2022-08-25T14:43:15.904Z,47.62
2022-08-25T14:45:49.235Z,48.31
2022-08-25T14:48:25.938Z,50.83
2022-08-25T14:50:54.910Z,53.38
2022-08-25T14:53:23.083Z,53.13
2022-08-25T14:55:54.094Z,52.71
2022-08-25T14:58:33.976Z,51.68
2022-08-25T15:01:06.228Z,49.60
2022-08-25T15:03:39.052Z,47.55
2022-08-25T15:06:08.036Z,46.37
2022-08-25T15:08:57.976Z,46.37
2022-08-25T15:11:27.291Z,44.84
2022-08-25T15:13:57.804Z,44.60
2022-08-25T15:16:35.179Z,44.03
2022-08-25T15:19:06.967Z,43.03
2022-08-25T15:21:37.302Z,42.38
2022-08-25T15:24:05.943Z,41.65
2022-08-25T15:26:44.336Z,40.95
2022-08-25T15:29:13.792Z,41.65
2022-08-25T15:31:45.577Z,42.50
2022-08-25T15:34:15.879Z,43.30
2022-08-25T15:36:44.435Z,41.86
2022-08-25T15:39:14.250Z,41.67
2022-08-25T15:41:43.843Z,41.68
2022-08-25T15:44:12.498Z,42.13
2022-08-25T15:46:47.019Z,41.41
2022-08-25T15:49:23.315Z,40.31
2022-08-25T15:51:54.354Z,39.33
2022-08-25T15:54:26.642Z,40.18
2022-08-25T15:56:57.374Z,39.20
2022-08-25T15:59:26.510Z,38.25
2022-08-25T16:02:04.766Z,36.61
2022-08-25T16:04:43.668Z,36.16
2022-08-25T16:07:13.509Z,36.41
2022-08-25T16:09:48.068Z,36.52
2022-08-25T16:12:19.639Z,35.93
2022-08-25T16:14:48.097Z,35.66
2022-08-25T16:17:22.296Z,35.28
2022-08-25T16:19:50.950Z,36.28
2022-08-25T16:22:21.056Z,36.18
2022-08-25T16:24:49.930Z,37.07
2022-08-25T16:27:19.463Z,35.38
2022-08-25T16:29:48.284Z,35.10
2022-08-25T16:32:19.291Z,35.82
2022-08-25T16:34:49.429Z,35.35
2022-08-25T16:37:18.169Z,35.56
2022-08-25T16:39:47.029Z,35.21
2022-08-25T16:42:16.419Z,35.47
2022-08-25T16:44:45.261Z,35.27
2022-08-25T16:47:17.561Z,36.86
2022-08-25T16:49:50.312Z,35.53
2022-08-25T16:52:32.246Z,36.10
2022-08-25T16:55:15.298Z,35.33
2022-08-25T16:57:47.954Z,35.26
2022-08-25T17:00:19.296Z,35.59
2022-08-25T17:02:47.903Z,35.90
2022-08-25T17:05:19.921Z,36.10
2022-08-25T17:08:09.072Z,36.40
2022-08-25T17:10:41.549Z,36.67
2022-08-25T17:13:10.895Z,36.00
2022-08-25T17:15:42.481Z,35.39
2022-08-25T17:18:15.114Z,35.34
2022-08-25T17:20:45.823Z,35.04
2022-08-25T17:23:14.723Z,35.74
2022-08-25T17:25:45.789Z,37.88
2022-08-25T17:28:14.949Z,38.53
2022-08-25T17:30:44.184Z,38.91
2022-08-25T17:33:14.376Z,38.77
2022-08-25T17:35:47.750Z,39.61
2022-08-25T17:38:19.990Z,39.54
2022-08-25T17:40:49.681Z,40.02
2022-08-25T17:43:18.385Z,41.27
2022-08-25T17:45:47.088Z,41.20
2022-08-25T17:48:17.467Z,40.68
2022-08-25T17:50:47.665Z,40.79
2022-08-25T17:53:19.318Z,40.42
2022-08-25T17:55:48.893Z,40.42
2022-08-25T17:58:18.784Z,40.11
2022-08-25T18:00:49.481Z,40.40
2022-08-25T18:03:19.660Z,41.27
2022-08-25T18:05:50.171Z,40.88
2022-08-25T18:08:19.140Z,42.67
2022-08-25T18:10:49.108Z,44.33
2022-08-25T18:13:20.203Z,45.36
2022-08-25T18:15:51.512Z,47.51
2022-08-25T18:18:20.341Z,47.62
2022-08-25T18:20:57.048Z,49.50
2022-08-25T18:23:26.941Z,50.89
2022-08-25T18:26:00.592Z,52.09
2022-08-25T18:28:30.191Z,52.26
2022-08-25T18:31:00.693Z,52.20
2022-08-25T18:33:30.228Z,52.52
2022-08-25T18:36:01.097Z,52.73
2022-08-25T18:38:47.167Z,53.32
2022-08-25T18:41:16.290Z,54.41
2022-08-25T18:43:45.258Z,56.15
2022-08-25T18:46:13.616Z,57.02
2022-08-25T18:48:43.835Z,57.92
2022-08-25T18:51:14.374Z,59.29
2022-08-25T18:53:50.427Z,60.74
2022-08-25T18:56:19.920Z,62.50
2022-08-25T18:58:51.426Z,62.77
2022-08-25T19:01:20.774Z,63.06
2022-08-25T19:03:49.985Z,62.97
2022-08-25T19:06:20.727Z,62.18
2022-08-25T19:08:53.033Z,63.64
2022-08-25T19:11:22.251Z,65.63
2022-08-25T19:13:51.288Z,66.45
2022-08-25T19:16:34.453Z,65.95
2022-08-25T19:19:06.345Z,65.64
2022-08-25T19:21:39.015Z,66.26
2022-08-25T19:24:08.831Z,68.28
2022-08-25T19:26:38.823Z,70.08
2022-08-25T19:29:10.375Z,71.48
2022-08-25T19:31:41.095Z,70.77
2022-08-25T19:34:12.730Z,72.26
2022-08-25T19:36:47.645Z,73.33
2022-08-25T19:39:17.816Z,72.61
2022-08-25T19:41:48.129Z,74.01
2022-08-25T19:44:20.384Z,73.96
2022-08-25T19:46:50.802Z,74.07
2022-08-25T19:49:26.360Z,74.66
2022-08-25T19:52:01.031Z,73.99
2022-08-25T19:54:33.917Z,74.87
2022-08-25T19:57:02.760Z,75.86
2022-08-25T19:59:42.968Z,75.02
2022-08-25T20:02:15.537Z,75.00
2022-08-25T20:04:49.904Z,76.01
2022-08-25T20:07:25.148Z,76.52
2022-08-25T20:09:56.933Z,77.16
2022-08-25T20:12:28.015Z,78.10
2022-08-25T20:14:57.033Z,78.42
2022-08-25T20:17:28.630Z,79.20
2022-08-25T20:20:06.245Z,79.36
2022-08-25T20:22:36.676Z,81.14
2022-08-25T20:25:13.178Z,82.54
2022-08-25T20:27:47.746Z,83.80
2022-08-25T20:30:19.087Z,84.40
2022-08-25T20:32:47.963Z,84.83
2022-08-25T20:35:17.138Z,85.40
2022-08-25T20:37:49.784Z,85.88
2022-08-25T20:40:26.267Z,86.06
2022-08-25T20:42:57.779Z,86.54
2022-08-25T20:45:29.933Z,86.54
2022-08-25T20:48:01.969Z,86.80
2022-08-25T20:50:31.629Z,87.71
2022-08-25T20:53:02.856Z,86.37
2022-08-25T20:55:32.396Z,87.87
2022-08-25T20:58:14.484Z,87.93
2022-08-25T21:00:43.105Z,89.71
2022-08-25T21:03:12.226Z,91.42
2022-08-25T21:05:43.285Z,91.93
2022-08-25T21:08:13.109Z,91.11
2022-08-25T21:10:42.779Z,90.93
2022-08-25T21:13:12.436Z,91.86
2022-08-25T21:15:44.407Z,92.10
2022-08-25T21:18:14.181Z,92.67
2022-08-25T21:20:42.547Z,92.50
2022-08-25T21:23:11.229Z,93.18
2022-08-25T21:25:43.135Z,92.07
2022-08-25T21:28:11.681Z,92.12
2022-08-25T21:30:44.823Z,93.39
2022-08-25T21:33:17.211Z,93.98
2022-08-25T21:35:49.869Z,93.46
2022-08-25T21:38:19.033Z,93.49
2022-08-25T21:40:49.756Z,93.63
2022-08-25T21:43:24.953Z,93.60
2022-08-25T21:45:55.175Z,94.42
2022-08-25T21:48:27.617Z,95.60
2022-08-25T21:51:05.607Z,95.04
2022-08-25T21:53:35.990Z,94.23
2022-08-25T21:56:16.369Z,95.40
2022-08-25T21:58:49.024Z,95.73
2022-08-25T22:01:19.732Z,96.97
2022-08-25T22:03:51.804Z,96.91
2022-08-25T22:06:22.811Z,96.75
2022-08-25T22:08:51.509Z,97.43
2022-08-25T22:11:22.813Z,98.06
2022-08-25T22:13:54.130Z,98.29
2022-08-25T22:16:23.370Z,98.60
2022-08-25T22:18:53.095Z,99.73
2022-08-25T22:21:27.727Z,98.66
2022-08-25T22:23:57.236Z,98.59
2022-08-25T22:26:30.841Z,99.01
2022-08-25T22:29:01.230Z,99.21
2022-08-25T22:31:31.826Z,99.59
2022-08-25T22:34:00.141Z,99.72
2022-08-25T22:36:33.327Z,98.92
2022-08-25T22:39:02.674Z,99.20
2022-08-25T22:41:34.532Z,100.00
2022-08-25T22:44:09.981Z,100.00
2022-08-25T22:46:39.675Z,100.00
2022-08-25T22:49:09.281Z,100.00
2022-08-25T22:51:37.764Z,100.00
2022-08-25T22:54:06.655Z,100.00
2022-08-25T22:56:39.939Z,100.00
2022-08-25T22:59:10.815Z,100.00
2022-08-25T23:01:39.624Z,100.00
2022-08-25T23:04:08.820Z,100.00
2022-08-25T23:06:40.250Z,100.00
2022-08-25T23:09:10.884Z,100.00
2022-08-25T23:11:41.210Z,100.00
2022-08-25T23:14:11.254Z,100.00
2022-08-25T23:16:41.657Z,100.00
2022-08-25T23:19:13.945Z,100.00
2022-08-25T23:22:00.232Z,100.00
2022-08-25T23:24:30.542Z,100.00
2022-08-25T23:27:01.913Z,100.00
2022-08-25T23:29:32.319Z,100.00
2022-08-25T23:32:00.861Z,100.00
2022-08-25T23:34:29.604Z,100.00
2022-08-25T23:36:58.440Z,100.00
2022-08-25T23:39:27.611Z,100.00
2022-08-25T23:41:56.127Z,100.00
2022-08-25T23:44:26.907Z,100.00
2022-08-25T23:46:55.519Z,100.00
2022-08-25T23:49:26.639Z,100.00
2022-08-25T23:51:57.746Z,100.00
2022-08-25T23:54:31.050Z,100.00
2022-08-25T23:57:01.601Z,100.00
2022-08-25T23:59:32.315Z,100.00
